createdAt,value
2019-03-06T00:01:49.372Z,15.70
2019-03-06T00:04:17.471Z,17.70
2019-03-06T00:06:45.734Z,18.00
2019-03-06T00:09:13.831Z,20.02
2019-03-06T00:11:42.065Z,22.77
2019-03-06T00:14:10.208Z,18.40
2019-03-06T00:16:38.153Z,18.23
2019-03-06T00:19:06.295Z,16.65
2019-03-06T00:21:34.353Z,14.65
2019-03-06T00:24:04.383Z,16.15
2019-03-06T00:26:33.378Z,20.02
2019-03-06T00:29:01.997Z,17.05
2019-03-06T00:31:30.103Z,18.67
2019-03-06T00:33:58.244Z,15.70
2019-03-06T00:36:28.624Z,16.35
2019-03-06T00:38:56.698Z,19.05
2019-03-06T00:41:29.118Z,17.85
2019-03-06T00:43:58.852Z,16.50
2019-03-06T00:46:26.814Z,15.63
2019-03-06T00:48:54.923Z,17.52
2019-03-06T00:51:23.273Z,15.55
2019-03-06T00:53:51.253Z,18.20
2019-03-06T00:56:21.347Z,15.35
2019-03-06T00:58:50.278Z,16.90
2019-03-06T01:01:18.330Z,14.53
2019-03-06T01:03:46.280Z,15.70
2019-03-06T01:06:15.003Z,13.13
2019-03-06T01:08:42.938Z,15.03
2019-03-06T01:11:10.883Z,15.85
2019-03-06T01:13:39.186Z,17.85
2019-03-06T01:16:07.620Z,17.32
2019-03-06T01:18:35.545Z,15.90
2019-03-06T01:21:03.704Z,15.08
2019-03-06T01:23:31.665Z,16.57
2019-03-06T01:26:00.474Z,17.90
2019-03-06T01:28:28.654Z,20.10
2019-03-06T01:30:56.643Z,15.53
2019-03-06T01:33:46.913Z,19.30
2019-03-06T01:36:34.518Z,16.93
2019-03-06T01:39:28.177Z,16.65
2019-03-06T01:42:07.567Z,14.03
2019-03-06T01:44:39.883Z,18.02
2019-03-06T01:47:08.397Z,17.62
2019-03-06T01:49:36.804Z,17.27
2019-03-06T01:52:04.816Z,18.57
2019-03-06T01:54:32.884Z,16.65
2019-03-06T01:57:00.918Z,17.45
2019-03-06T01:59:30.204Z,13.98
2019-03-06T02:01:58.354Z,13.90
2019-03-06T02:04:26.322Z,15.48
2019-03-06T02:06:54.220Z,17.23
2019-03-06T02:09:26.056Z,17.27
2019-03-06T02:11:54.231Z,17.45
2019-03-06T02:14:22.376Z,18.30
2019-03-06T02:16:50.425Z,14.90
2019-03-06T02:19:18.380Z,17.52
2019-03-06T02:21:46.314Z,16.07
2019-03-06T02:24:14.297Z,15.75
2019-03-06T02:26:42.867Z,15.15
2019-03-06T02:29:11.041Z,15.65
2019-03-06T02:31:40.083Z,15.50
2019-03-06T02:34:10.364Z,14.50
2019-03-06T02:36:40.869Z,12.43
2019-03-06T02:39:08.983Z,15.75
2019-03-06T02:41:38.048Z,16.00
2019-03-06T02:44:06.155Z,14.55
2019-03-06T02:46:34.148Z,13.88
2019-03-06T02:49:02.964Z,14.20
2019-03-06T02:51:32.635Z,16.17
2019-03-06T02:54:00.674Z,14.50
2019-03-06T02:56:28.835Z,12.10
2019-03-06T02:59:10.463Z,13.32
2019-03-06T03:02:01.035Z,11.53
2019-03-06T03:04:36.233Z,11.90
2019-03-06T03:07:07.336Z,11.97
2019-03-06T03:09:35.688Z,12.93
2019-03-06T03:12:03.745Z,14.45
2019-03-06T03:14:31.727Z,14.35
2019-03-06T03:16:59.805Z,13.90
2019-03-06T03:19:27.883Z,10.80
2019-03-06T03:21:55.792Z,10.63
2019-03-06T03:24:23.798Z,12.15
2019-03-06T03:26:51.806Z,12.82
2019-03-06T03:29:19.789Z,11.60
2019-03-06T03:31:47.778Z,11.73
2019-03-06T03:34:15.713Z,13.43
2019-03-06T03:36:44.125Z,12.15
2019-03-06T03:39:12.125Z,11.50
2019-03-06T03:41:40.100Z,15.15
2019-03-06T03:44:08.070Z,14.40
2019-03-06T03:46:36.064Z,16.95
2019-03-06T03:49:04.013Z,17.50
2019-03-06T03:51:32.290Z,14.85
2019-03-06T03:54:00.243Z,13.68
2019-03-06T03:56:28.168Z,13.15
2019-03-06T03:58:56.163Z,14.13
2019-03-06T04:01:24.202Z,15.95
2019-03-06T04:03:52.227Z,16.35
2019-03-06T04:06:20.205Z,13.65
2019-03-06T04:08:48.219Z,18.00
2019-03-06T04:11:16.275Z,17.00
2019-03-06T04:13:44.235Z,16.93
2019-03-06T04:16:12.196Z,17.23
2019-03-06T04:18:40.215Z,15.95
2019-03-06T04:21:08.180Z,16.30
2019-03-06T04:23:36.209Z,14.70
2019-03-06T04:26:04.345Z,16.75
2019-03-06T04:28:32.319Z,16.20
2019-03-06T04:31:00.337Z,16.12
2019-03-06T04:33:28.655Z,16.35
2019-03-06T04:35:56.557Z,13.95
2019-03-06T04:38:24.475Z,13.83
2019-03-06T04:40:53.406Z,14.05
2019-03-06T04:43:21.452Z,16.07
2019-03-06T04:45:49.377Z,16.32
2019-03-06T04:48:17.459Z,17.70
2019-03-06T04:50:45.378Z,16.40
2019-03-06T04:53:13.382Z,13.75
2019-03-06T04:55:41.363Z,14.03
2019-03-06T04:58:09.404Z,17.42
2019-03-06T05:00:37.629Z,15.75
2019-03-06T05:03:05.611Z,15.20
2019-03-06T05:05:33.577Z,19.07
2019-03-06T05:08:01.547Z,15.60
2019-03-06T05:10:29.612Z,16.50
2019-03-06T05:12:57.550Z,17.62
2019-03-06T05:15:25.543Z,15.55
2019-03-06T05:17:59.117Z,19.57
2019-03-06T05:20:27.128Z,23.20
2019-03-06T05:22:55.119Z,19.15
2019-03-06T05:25:23.461Z,24.77
2019-03-06T05:27:51.683Z,19.57
2019-03-06T05:30:21.701Z,24.60
2019-03-06T05:32:49.911Z,21.60
2019-03-06T05:36:11.843Z,19.92
2019-03-06T05:39:09.798Z,17.90
2019-03-06T05:41:37.840Z,24.10
2019-03-06T05:44:06.060Z,19.98
2019-03-06T05:46:34.109Z,21.37
2019-03-06T05:49:02.097Z,19.25
2019-03-06T05:51:30.159Z,20.60
2019-03-06T05:53:58.201Z,26.68
2019-03-06T05:56:26.388Z,19.40
2019-03-06T05:58:54.379Z,20.52
2019-03-06T06:01:22.333Z,20.35
2019-03-06T06:03:50.716Z,18.62
2019-03-06T06:06:18.885Z,22.42
2019-03-06T06:08:46.860Z,20.25
2019-03-06T06:11:14.752Z,20.65
2019-03-06T06:13:42.811Z,19.17
2019-03-06T06:16:10.987Z,18.85
2019-03-06T06:18:39.137Z,23.27
2019-03-06T06:21:41.643Z,26.23
2019-03-06T06:24:13.175Z,23.15
2019-03-06T06:26:41.233Z,23.62
2019-03-06T06:29:09.210Z,28.10
2019-03-06T06:31:37.594Z,23.73
2019-03-06T06:34:06.623Z,23.45
2019-03-06T06:36:34.658Z,23.73
2019-03-06T06:39:04.153Z,22.70
2019-03-06T06:41:32.312Z,18.60
2019-03-06T06:44:00.306Z,20.72
2019-03-06T06:46:29.610Z,27.82
2019-03-06T06:48:57.874Z,22.42
2019-03-06T06:52:12.637Z,19.57
2019-03-06T06:55:50.956Z,21.55
2019-03-06T06:59:03.769Z,17.92
2019-03-06T07:03:02.401Z,14.65
2019-03-06T07:06:07.843Z,14.05
2019-03-06T07:08:53.245Z,14.33
2019-03-06T07:11:52.521Z,14.13
2019-03-06T07:14:38.546Z,11.70
2019-03-06T07:17:28.641Z,15.90
2019-03-06T07:20:05.078Z,12.03
2019-03-06T07:22:44.523Z,11.30
2019-03-06T07:25:46.633Z,12.47
2019-03-06T07:28:28.990Z,12.73
2019-03-06T07:31:12.656Z,13.60
2019-03-06T07:33:56.105Z,13.50
2019-03-06T07:36:48.146Z,9.80
2019-03-06T07:39:22.539Z,10.43
2019-03-06T07:42:12.740Z,10.50
2019-03-06T07:45:00.072Z,8.20
2019-03-06T07:47:59.607Z,7.80
2019-03-06T07:50:45.106Z,7.87
2019-03-06T07:54:06.028Z,8.48
2019-03-06T07:56:40.144Z,8.93
2019-03-06T07:59:08.101Z,10.43
2019-03-06T08:01:41.750Z,8.75
2019-03-06T08:04:15.006Z,7.92
2019-03-06T08:06:48.018Z,10.28
2019-03-06T08:09:17.792Z,8.98
2019-03-06T08:11:53.563Z,15.35
2019-03-06T08:14:59.279Z,9.00
2019-03-06T08:17:49.681Z,6.28
2019-03-06T08:20:40.189Z,10.03
2019-03-06T08:23:45.669Z,8.15
2019-03-06T08:26:13.827Z,10.88
2019-03-06T08:28:41.921Z,5.83
2019-03-06T08:31:16.411Z,6.58
2019-03-06T08:33:44.426Z,8.53
2019-03-06T08:36:12.366Z,6.75
2019-03-06T08:38:40.338Z,5.28
2019-03-06T08:41:08.465Z,6.15
2019-03-06T08:43:36.645Z,7.57
2019-03-06T08:46:33.139Z,7.13
2019-03-06T08:49:24.479Z,5.65
2019-03-06T08:52:17.821Z,5.43
2019-03-06T08:55:23.353Z,5.62
2019-03-06T08:58:13.944Z,7.10
2019-03-06T09:01:04.357Z,5.75
2019-03-06T09:03:58.270Z,5.20
2019-03-06T09:06:47.039Z,6.00
2019-03-06T09:09:34.738Z,5.50
2019-03-06T09:12:20.505Z,4.87
2019-03-06T09:15:13.865Z,8.57
2019-03-06T09:18:09.268Z,4.77
2019-03-06T09:20:48.535Z,7.53
2019-03-06T09:23:41.922Z,4.83
2019-03-06T09:26:24.811Z,2.40
2019-03-06T09:29:09.338Z,3.00
2019-03-06T09:31:56.982Z,4.60
2019-03-06T09:34:39.316Z,5.60
2019-03-06T09:37:24.113Z,7.50
2019-03-06T09:40:02.385Z,8.83
2019-03-06T09:42:56.159Z,4.03
2019-03-06T09:45:43.831Z,2.53
2019-03-06T09:48:37.065Z,3.93
2019-03-06T09:51:27.421Z,4.87
2019-03-06T09:54:16.223Z,3.90
2019-03-06T09:56:52.433Z,3.20
2019-03-06T09:59:25.385Z,3.80
2019-03-06T10:02:12.968Z,4.57
2019-03-06T10:05:03.236Z,3.67
2019-03-06T10:07:46.386Z,1.20
2019-03-06T10:10:45.784Z,5.83
2019-03-06T10:13:25.139Z,2.43
2019-03-06T10:16:15.580Z,2.40
2019-03-06T10:18:50.175Z,7.37
2019-03-06T10:21:18.179Z,3.33
2019-03-06T10:23:46.309Z,4.87
2019-03-06T10:26:14.438Z,2.90
2019-03-06T10:28:42.681Z,4.37
2019-03-06T10:31:10.956Z,2.43
2019-03-06T10:33:39.021Z,2.67
2019-03-06T10:36:07.491Z,4.93
2019-03-06T10:38:35.521Z,2.20
2019-03-06T10:41:03.844Z,2.10
2019-03-06T10:43:31.850Z,2.13
2019-03-06T10:45:59.939Z,2.10
2019-03-06T10:48:28.277Z,4.23
2019-03-06T10:50:56.388Z,3.10
2019-03-06T10:53:24.366Z,3.53
2019-03-06T10:55:52.723Z,4.67
2019-03-06T10:58:20.798Z,5.87
2019-03-06T11:00:51.234Z,6.20
2019-03-06T11:03:19.417Z,3.40
2019-03-06T11:05:48.411Z,1.80
2019-03-06T11:08:17.725Z,3.87
2019-03-06T11:10:45.850Z,3.00
2019-03-06T11:13:13.794Z,3.23
2019-03-06T11:15:42.277Z,4.73
2019-03-06T11:18:10.823Z,3.33
2019-03-06T11:20:40.744Z,2.60
2019-03-06T11:23:09.866Z,3.47
2019-03-06T11:25:39.487Z,2.97
2019-03-06T11:28:10.415Z,3.47
2019-03-06T11:30:44.268Z,6.50
2019-03-06T11:33:12.562Z,3.27
2019-03-06T11:35:40.961Z,1.60
2019-03-06T11:38:09.588Z,1.87
2019-03-06T11:40:37.746Z,3.40
2019-03-06T11:43:06.929Z,3.03
2019-03-06T11:45:36.948Z,1.43
2019-03-06T11:48:06.617Z,2.23
2019-03-06T11:50:40.940Z,2.80
2019-03-06T11:53:05.118Z,2.80
2019-03-06T11:55:33.606Z,2.20
2019-03-06T11:58:01.709Z,2.83
2019-03-06T12:00:35.178Z,3.30
2019-03-06T12:03:04.341Z,4.13
2019-03-06T12:05:34.528Z,3.10
2019-03-06T12:08:05.607Z,3.20
2019-03-06T12:10:33.653Z,3.63
2019-03-06T12:13:01.710Z,1.70
2019-03-06T12:15:29.760Z,2.07
2019-03-06T12:17:58.000Z,2.27
2019-03-06T12:20:25.951Z,2.57
2019-03-06T12:22:54.100Z,1.93
2019-03-06T12:25:23.492Z,1.80
2019-03-06T12:27:52.369Z,2.47
2019-03-06T12:30:20.533Z,3.13
2019-03-06T12:32:48.567Z,3.10
2019-03-06T12:35:16.941Z,2.37
2019-03-06T12:37:47.228Z,3.80
2019-03-06T12:40:15.613Z,5.70
2019-03-06T12:42:45.566Z,2.77
2019-03-06T12:45:14.744Z,1.83
2019-03-06T12:47:44.820Z,3.57
2019-03-06T12:50:16.666Z,1.60
2019-03-06T12:52:45.948Z,1.50
2019-03-06T12:55:14.152Z,4.20
2019-03-06T12:57:42.157Z,2.70
2019-03-06T13:00:18.497Z,1.87
2019-03-06T13:02:48.081Z,3.70
2019-03-06T13:05:17.289Z,3.03
2019-03-06T13:07:45.372Z,2.13
2019-03-06T13:10:13.593Z,5.57
2019-03-06T13:12:42.124Z,4.13
2019-03-06T13:15:13.507Z,2.60
2019-03-06T13:17:43.788Z,2.53
2019-03-06T13:20:12.520Z,3.53
2019-03-06T13:22:44.052Z,9.03
2019-03-06T13:25:14.170Z,4.67
2019-03-06T13:27:42.439Z,4.93
2019-03-06T13:30:18.767Z,1.50
2019-03-06T13:32:57.158Z,2.80
2019-03-06T13:35:25.881Z,4.27
2019-03-06T13:37:53.967Z,3.07
2019-03-06T13:40:21.895Z,1.60
2019-03-06T13:42:50.951Z,4.63
2019-03-06T13:45:19.467Z,3.57
2019-03-06T13:47:47.654Z,3.10
2019-03-06T13:50:15.797Z,4.80
2019-03-06T13:52:43.799Z,5.53
2019-03-06T13:55:12.293Z,3.00
2019-03-06T13:57:40.420Z,5.27
2019-03-06T14:00:11.803Z,2.10
2019-03-06T14:02:40.084Z,4.33
2019-03-06T14:05:08.559Z,3.53
2019-03-06T14:07:36.739Z,2.80
2019-03-06T14:10:05.431Z,3.70
2019-03-06T14:12:34.576Z,2.20
2019-03-06T14:15:03.124Z,3.70
2019-03-06T14:17:31.538Z,3.53
2019-03-06T14:19:59.518Z,2.10
2019-03-06T14:22:27.547Z,1.33
2019-03-06T14:24:55.766Z,4.17
2019-03-06T14:27:24.708Z,4.80
2019-03-06T14:29:52.762Z,1.93
2019-03-06T14:32:21.215Z,3.90
2019-03-06T14:34:49.464Z,3.40
2019-03-06T14:37:18.294Z,3.27
2019-03-06T14:39:49.305Z,3.37
2019-03-06T14:42:17.418Z,3.00
2019-03-06T14:44:45.691Z,2.40
2019-03-06T14:47:15.009Z,2.20
2019-03-06T14:49:42.953Z,2.10
2019-03-06T14:52:13.863Z,1.97
2019-03-06T14:54:42.397Z,2.60
2019-03-06T14:57:10.758Z,1.33
2019-03-06T14:59:38.687Z,3.87
2019-03-06T15:02:10.486Z,1.67
2019-03-06T15:04:40.414Z,3.47
2019-03-06T15:07:12.669Z,3.70
2019-03-06T15:09:41.813Z,4.50
2019-03-06T15:12:10.070Z,4.17
2019-03-06T15:14:39.192Z,7.40
2019-03-06T15:17:07.433Z,2.33
2019-03-06T15:19:35.588Z,2.53
2019-03-06T15:27:48.755Z,3.90
2019-03-06T15:30:17.706Z,1.57
2019-03-06T15:32:51.722Z,4.40
2019-03-06T15:38:09.736Z,2.93
2019-03-06T15:43:40.759Z,7.10
2019-03-06T15:46:08.938Z,1.57
2019-03-06T15:48:37.960Z,2.53
2019-03-06T15:51:06.490Z,2.40
2019-03-06T15:53:34.801Z,1.40
2019-03-06T15:56:02.781Z,4.30
2019-03-06T15:58:35.598Z,2.10
2019-03-06T16:01:04.549Z,4.13
2019-03-06T16:03:32.889Z,6.43
2019-03-06T16:06:01.201Z,1.90
2019-03-06T16:08:29.823Z,2.13
2019-03-06T16:10:58.009Z,2.20
2019-03-06T16:13:26.246Z,3.10
2019-03-06T16:15:55.272Z,3.43
2019-03-06T16:18:23.610Z,2.00
2019-03-06T16:20:51.725Z,1.80
2019-03-06T16:23:20.329Z,3.27
2019-03-06T16:25:48.366Z,3.00
2019-03-06T16:28:16.703Z,3.43
2019-03-06T16:30:45.259Z,2.23
2019-03-06T16:33:13.462Z,3.83
2019-03-06T16:35:41.717Z,2.97
2019-03-06T16:38:09.862Z,3.27
2019-03-06T16:40:38.150Z,1.77
2019-03-06T16:43:06.917Z,2.60
2019-03-06T16:45:39.473Z,2.77
2019-03-06T16:48:08.100Z,3.47
2019-03-06T16:50:36.362Z,2.13
2019-03-06T16:53:04.962Z,3.10
2019-03-06T16:55:33.226Z,5.53
2019-03-06T16:58:05.897Z,4.33
2019-03-06T17:00:36.747Z,4.10
2019-03-06T17:03:08.699Z,4.50
2019-03-06T17:05:37.362Z,5.90
2019-03-06T17:08:06.237Z,2.47
2019-03-06T17:10:38.231Z,4.20
2019-03-06T17:13:06.766Z,2.93
2019-03-06T17:15:35.097Z,2.53
2019-03-06T17:18:03.699Z,5.60
2019-03-06T17:20:31.976Z,5.10
2019-03-06T17:23:00.221Z,5.97
2019-03-06T17:25:34.854Z,3.43
2019-03-06T17:28:03.169Z,3.53
2019-03-06T17:30:32.368Z,3.67
2019-03-06T17:33:03.178Z,3.20
2019-03-06T17:35:31.924Z,2.50
2019-03-06T17:38:00.495Z,2.87
2019-03-06T17:40:28.905Z,5.33
2019-03-06T17:42:57.605Z,2.03
2019-03-06T17:45:26.099Z,6.90
2019-03-06T17:47:54.264Z,2.63
2019-03-06T17:50:22.950Z,4.40
2019-03-06T17:52:51.383Z,2.90
2019-03-06T17:55:24.423Z,3.23
2019-03-06T17:57:52.622Z,3.40
2019-03-06T18:00:25.731Z,3.80
2019-03-06T18:02:54.171Z,3.10
2019-03-06T18:05:22.766Z,4.30
2019-03-06T18:07:51.315Z,4.00
2019-03-06T18:10:19.696Z,6.40
2019-03-06T18:12:47.858Z,3.40
2019-03-06T18:15:16.163Z,2.93
2019-03-06T18:17:44.649Z,2.10
2019-03-06T18:20:13.790Z,7.37
2019-03-06T18:22:43.035Z,4.30
2019-03-06T18:25:14.019Z,3.57
2019-03-06T18:27:42.219Z,4.73
2019-03-06T18:30:13.565Z,5.60
2019-03-06T18:32:42.117Z,5.70
2019-03-06T18:35:11.958Z,3.80
2019-03-06T18:37:40.106Z,4.80
2019-03-06T18:40:11.246Z,5.50
2019-03-06T18:42:39.845Z,8.87
2019-03-06T18:45:11.367Z,6.00
2019-03-06T18:47:39.998Z,9.10
2019-03-06T18:50:10.681Z,9.87
2019-03-06T18:52:38.891Z,6.37
2019-03-06T18:55:08.345Z,6.33
2019-03-06T18:57:36.988Z,14.93
2019-03-06T19:00:08.575Z,6.60
2019-03-06T19:02:37.401Z,6.10
2019-03-06T19:05:06.323Z,9.60
2019-03-06T19:07:35.873Z,14.23
2019-03-06T19:10:05.800Z,11.30
2019-03-06T19:12:34.461Z,5.70
2019-03-06T19:15:03.678Z,10.33
2019-03-06T19:17:33.928Z,5.77
2019-03-06T19:20:06.818Z,4.10
2019-03-06T19:22:35.811Z,7.23
2019-03-06T19:25:04.778Z,6.07
2019-03-06T19:27:33.687Z,7.63
2019-03-06T19:30:02.223Z,6.60
2019-03-06T19:32:30.831Z,8.97
2019-03-06T19:34:59.819Z,8.20
2019-03-06T19:37:28.328Z,8.00
2019-03-06T19:39:56.800Z,10.03
2019-03-06T19:42:25.195Z,8.73
2019-03-06T19:44:53.658Z,10.00
2019-03-06T19:47:22.307Z,10.27
2019-03-06T19:49:50.596Z,14.33
2019-03-06T19:52:21.402Z,10.27
2019-03-06T19:54:51.347Z,9.37
2019-03-06T19:57:19.651Z,10.40
2019-03-06T19:59:49.305Z,14.90
2019-03-06T20:02:17.823Z,10.43
2019-03-06T20:04:46.090Z,9.63
2019-03-06T20:07:14.327Z,11.47
2019-03-06T20:09:42.740Z,20.27
2019-03-06T20:12:11.369Z,9.17
2019-03-06T20:14:39.760Z,11.03
2019-03-06T20:17:08.168Z,11.30
2019-03-06T20:19:36.605Z,10.87
2019-03-06T20:22:05.333Z,15.77
2019-03-06T20:24:33.709Z,16.40
2019-03-06T20:27:01.991Z,11.60
2019-03-06T20:29:30.194Z,13.03
2019-03-06T20:32:00.337Z,8.60
2019-03-06T20:34:29.660Z,11.77
2019-03-06T20:36:57.867Z,11.60
2019-03-06T20:39:26.929Z,10.40
2019-03-06T20:41:55.195Z,12.40
2019-03-06T20:44:23.364Z,9.80
2019-03-06T20:46:51.452Z,13.07
2019-03-06T20:49:19.637Z,13.23
2019-03-06T20:51:48.115Z,7.00
2019-03-06T20:54:16.237Z,11.13
2019-03-06T20:56:44.357Z,9.30
2019-03-06T20:59:13.811Z,13.20
2019-03-06T21:01:42.030Z,6.63
2019-03-06T21:04:11.278Z,7.00
2019-03-06T21:06:39.655Z,8.47
2019-03-06T21:09:08.434Z,8.03
2019-03-06T21:11:37.942Z,11.20
2019-03-06T21:14:06.372Z,11.73
2019-03-06T21:16:34.491Z,7.17
2019-03-06T21:19:03.914Z,18.03
2019-03-06T21:21:32.257Z,7.90
2019-03-06T21:24:00.771Z,6.23
2019-03-06T21:26:28.991Z,10.63
2019-03-06T21:28:57.447Z,7.90
2019-03-06T21:31:25.903Z,15.03
2019-03-06T21:33:54.012Z,13.70
2019-03-06T21:36:22.142Z,17.80
2019-03-06T21:38:50.195Z,15.80
2019-03-06T21:41:18.287Z,15.20
2019-03-06T21:43:46.543Z,8.78
2019-03-06T21:46:15.320Z,14.43
2019-03-06T21:48:43.435Z,14.87
2019-03-06T21:51:11.682Z,9.27
2019-03-06T21:53:39.781Z,9.70
2019-03-06T21:56:07.899Z,6.50
2019-03-06T21:58:35.977Z,8.38
2019-03-06T22:01:05.032Z,9.13
2019-03-06T22:03:33.280Z,8.17
2019-03-06T22:06:01.398Z,8.30
2019-03-06T22:08:29.519Z,9.50
2019-03-06T22:10:58.587Z,5.90
2019-03-06T22:13:26.615Z,7.27
2019-03-06T22:15:54.791Z,6.78
2019-03-06T22:18:23.087Z,6.53
2019-03-06T22:20:51.210Z,10.23
2019-03-06T22:23:19.388Z,4.10
2019-03-06T22:25:47.512Z,7.23
2019-03-06T22:28:15.802Z,5.93
2019-03-06T22:30:43.858Z,5.70
2019-03-06T22:33:11.867Z,3.77
2019-03-06T22:35:40.179Z,5.95
2019-03-06T22:38:08.172Z,4.78
2019-03-06T22:40:36.188Z,3.73
2019-03-06T22:43:04.546Z,6.90
2019-03-06T22:45:33.338Z,4.30
2019-03-06T22:48:01.376Z,4.00
2019-03-06T22:50:29.565Z,5.83
2019-03-06T22:52:57.700Z,3.22
2019-03-06T22:55:25.607Z,4.77
2019-03-06T22:57:53.577Z,4.33
2019-03-06T23:00:43.431Z,5.30
2019-03-06T23:03:14.124Z,8.87
2019-03-06T23:05:42.331Z,5.62
2019-03-06T23:08:10.851Z,5.07
2019-03-06T23:10:38.802Z,4.80
2019-03-06T23:13:06.765Z,5.95
2019-03-06T23:15:34.766Z,8.85
2019-03-06T23:18:02.794Z,9.38
2019-03-06T23:20:30.784Z,4.28
2019-03-06T23:22:58.809Z,6.20
2019-03-06T23:25:26.708Z,10.23
2019-03-06T23:27:54.676Z,7.65
2019-03-06T23:30:22.667Z,7.97
2019-03-06T23:32:50.829Z,7.80
2019-03-06T23:35:19.029Z,6.67
2019-03-06T23:37:47.362Z,5.87
2019-03-06T23:40:15.305Z,7.22
2019-03-06T23:42:44.028Z,5.00
2019-03-06T23:45:12.066Z,7.58
2019-03-06T23:47:40.271Z,4.58
2019-03-06T23:50:08.459Z,10.32
2019-03-06T23:52:57.206Z,7.45
2019-03-06T23:55:27.167Z,6.92
2019-03-06T23:57:55.345Z,5.60
